Time;durP1;ratioP1;P1;durP2;ratioP2;P2;SDS_P1;SDS_P2;PMS_P1;PMS_P2;Temp;Humidity;BMP_temperature;BMP_pressure;BME280_temperature;BME280_humidity;BME280_pressure;Samples;Min_cycle;Max_cycle;Signal;HPM_P1;HPM_P2
2023/03/26 00:02:19;;;;;;;;;;;7.60;99.90;;;;;;5079954;28;19931;-62
2023/03/26 00:04:46;;;;;;;;;;;7.50;99.90;;;;;;5085280;28;19924;-62
2023/03/26 00:07:13;;;;;;;;;;;7.60;99.90;;;;;;5086429;28;19927;-61
2023/03/26 00:09:39;;;;;;;;;;;7.60;99.90;;;;;;5085193;28;19928;-62
2023/03/26 00:12:06;;;;;;;;;;;7.70;99.90;;;;;;5084413;28;19929;-60
2023/03/26 00:14:34;;;;;;;;;;;7.60;99.90;;;;;;5088287;28;19924;-62
2023/03/26 00:17:03;;;;;;;;;;;7.60;99.90;;;;;;5084822;28;19928;-62
2023/03/26 00:19:29;;;;;;;;;;;7.70;99.90;;;;;;5086733;28;20014;-62
2023/03/26 00:21:56;;;;;;;;;;;7.70;99.90;;;;;;5085252;28;20286;-61
2023/03/26 00:24:28;;;;;;;;;;;7.80;99.90;;;;;;5086450;28;19924;-61
2023/03/26 00:26:54;;;;;;;;;;;7.80;99.90;;;;;;5084548;28;20329;-63
2023/03/26 00:29:21;;;;;;;;;;;7.80;99.90;;;;;;5084302;28;19928;-62
2023/03/26 00:31:48;;;;;;;;;;;7.80;99.90;;;;;;5080791;28;19968;-62
2023/03/26 00:34:17;;;;;;;;;;;7.70;99.90;;;;;;5084877;28;20408;-62
2023/03/26 00:36:45;;;;;;;;;;;7.70;99.90;;;;;;5086916;28;20378;-62
2023/03/26 00:39:12;;;;;;;;;;;7.70;99.90;;;;;;5085894;28;20033;-62
2023/03/26 00:41:41;;;;;;;;;;;7.70;99.90;;;;;;5084192;28;19925;-63
2023/03/26 00:44:08;;;;;;;;;;;7.80;99.90;;;;;;5085573;28;19924;-62
2023/03/26 00:46:35;;;;;;;;;;;7.80;99.90;;;;;;5085602;28;19924;-62
2023/03/26 00:49:02;;;;;;;;;;;7.70;99.90;;;;;;5080454;28;19933;-62
2023/03/26 00:51:32;;;;;;;;;;;7.70;99.90;;;;;;5084457;28;19976;-61
2023/03/26 00:53:58;;;;;;;;;;;7.70;99.90;;;;;;5086394;28;19994;-62
2023/03/26 00:56:25;;;;;;;;;;;7.80;99.90;;;;;;5084093;28;19924;-62
2023/03/26 00:58:51;;;;;;;;;;;7.80;99.90;;;;;;5085630;28;19928;-62
2023/03/26 01:01:25;;;;;;;;;;;7.80;99.90;;;;;;5083689;28;20337;-62
2023/03/26 01:03:57;;;;;;;;;;;7.80;99.90;;;;;;5083575;28;19924;-62
2023/03/26 01:06:26;;;;;;;;;;;7.80;99.90;;;;;;5084232;28;20524;-61
2023/03/26 01:08:58;;;;;;;;;;;7.80;99.90;;;;;;5085209;28;19925;-63
2023/03/26 01:11:26;;;;;;;;;;;7.80;99.90;;;;;;5083307;28;19924;-62
2023/03/26 01:13:55;;;;;;;;;;;7.80;99.90;;;;;;5085607;28;19977;-62
2023/03/26 01:16:25;;;;;;;;;;;7.80;99.90;;;;;;5084358;28;20349;-63
2023/03/26 01:18:52;;;;;;;;;;;7.80;99.90;;;;;;5083199;28;19981;-61
2023/03/26 01:21:21;;;;;;;;;;;7.80;99.90;;;;;;5084480;28;19924;-61
2023/03/26 01:23:49;;;;;;;;;;;7.80;99.90;;;;;;5084095;28;19978;-61
2023/03/26 01:26:24;;;;;;;;;;;7.80;99.90;;;;;;5082559;28;19925;-61
2023/03/26 01:28:52;;;;;;;;;;;7.90;99.90;;;;;;5083079;28;19970;-61
2023/03/26 01:31:23;;;;;;;;;;;7.90;99.90;;;;;;5083953;28;19924;-62
2023/03/26 01:33:55;;;;;;;;;;;7.80;99.90;;;;;;5085044;28;19923;-61
2023/03/26 01:36:25;;;;;;;;;;;7.80;99.90;;;;;;5084600;28;19924;-62
2023/03/26 01:38:58;;;;;;;;;;;7.80;99.90;;;;;;5079346;28;19925;-60
2023/03/26 01:41:29;;;;;;;;;;;7.80;99.90;;;;;;5082811;28;19931;-61
2023/03/26 01:44:00;;;;;;;;;;;7.80;99.90;;;;;;5084104;28;19924;-60
2023/03/26 01:46:26;;;;;;;;;;;7.90;99.90;;;;;;5084510;28;19993;-59
2023/03/26 01:48:54;;;;;;;;;;;7.90;99.90;;;;;;5083102;28;19924;-60
2023/03/26 01:51:27;;;;;;;;;;;7.80;99.90;;;;;;5082569;28;19925;-61
2023/03/26 01:53:55;;;;;;;;;;;7.80;99.90;;;;;;5080230;28;19979;-61
2023/03/26 01:56:25;;;;;;;;;;;7.80;99.90;;;;;;5082177;28;19928;-61
2023/03/26 01:58:59;;;;;;;;;;;7.80;99.90;;;;;;5080388;28;20360;-61
2023/03/26 02:01:28;;;;;;;;;;;7.80;99.90;;;;;;5082037;28;20386;-61
2023/03/26 02:03:58;;;;;;;;;;;7.90;99.90;;;;;;5083290;28;19924;-61
2023/03/26 02:06:29;;;;;;;;;;;7.90;99.90;;;;;;5084516;28;19986;-61
2023/03/26 02:08:57;;;;;;;;;;;7.90;99.90;;;;;;5083542;28;19924;-61
2023/03/26 02:11:24;;;;;;;;;;;7.80;99.90;;;;;;5082131;28;19924;-61
2023/03/26 02:13:51;;;;;;;;;;;7.80;99.90;;;;;;5083442;28;19924;-62
2023/03/26 02:16:19;;;;;;;;;;;7.80;99.90;;;;;;5083907;28;19973;-61
2023/03/26 02:18:50;;;;;;;;;;;7.90;99.90;;;;;;5079196;28;19924;-60
2023/03/26 02:21:18;;;;;;;;;;;7.80;99.90;;;;;;5082006;28;20379;-61
2023/03/26 02:23:47;;;;;;;;;;;7.80;99.90;;;;;;5079847;28;19951;-61
2023/03/26 02:26:15;;;;;;;;;;;7.90;99.90;;;;;;5082094;28;19931;-61
2023/03/26 02:28:42;;;;;;;;;;;7.80;99.90;;;;;;5078153;28;19982;-61
2023/03/26 02:31:09;;;;;;;;;;;7.70;99.90;;;;;;5082390;28;19928;-61
2023/03/26 02:33:38;;;;;;;;;;;7.70;99.90;;;;;;5086343;28;19928;-61
2023/03/26 02:36:07;;;;;;;;;;;7.70;99.90;;;;;;5082465;28;19990;-61
2023/03/26 02:38:33;;;;;;;;;;;7.60;99.90;;;;;;5081670;28;19924;-62
2023/03/26 02:41:00;;;;;;;;;;;7.50;99.90;;;;;;5083206;28;19924;-61
2023/03/26 02:43:27;;;;;;;;;;;7.60;99.90;;;;;;5083538;28;19928;-61
2023/03/26 02:45:54;;;;;;;;;;;7.60;99.90;;;;;;5081145;28;19925;-61
2023/03/26 02:48:20;;;;;;;;;;;7.60;99.90;;;;;;5082792;28;19977;-61
2023/03/26 02:50:49;;;;;;;;;;;7.60;99.90;;;;;;5084021;28;19928;-61
2023/03/26 02:53:15;;;;;;;;;;;7.70;99.90;;;;;;5082132;28;20019;-61
2023/03/26 02:55:42;;;;;;;;;;;7.60;99.90;;;;;;5081366;28;19932;-61
2023/03/26 02:58:08;;;;;;;;;;;7.60;99.90;;;;;;5083886;28;20336;-62
2023/03/26 03:00:35;;;;;;;;;;;7.70;99.90;;;;;;5082641;28;19924;-61
2023/03/26 03:03:03;;;;;;;;;;;7.70;99.90;;;;;;5081546;28;20077;-62
2023/03/26 03:05:30;;;;;;;;;;;7.60;99.90;;;;;;5082969;28;19970;-62
2023/03/26 03:07:58;;;;;;;;;;;7.60;99.90;;;;;;5083367;28;20037;-62
2023/03/26 03:10:25;;;;;;;;;;;7.60;99.90;;;;;;5077668;28;20039;-61
2023/03/26 03:12:51;;;;;;;;;;;7.60;99.90;;;;;;5081831;28;19974;-61
2023/03/26 03:15:18;;;;;;;;;;;7.60;99.90;;;;;;5083286;28;19932;-61
2023/03/26 03:17:44;;;;;;;;;;;7.50;99.90;;;;;;5082024;28;19924;-61
2023/03/26 03:20:12;;;;;;;;;;;7.40;99.90;;;;;;5081143;28;19931;-61
2023/03/26 03:22:39;;;;;;;;;;;7.50;99.90;;;;;;5077875;28;19928;-61
2023/03/26 03:25:12;;;;;;;;;;;7.50;99.90;;;;;;5083767;28;20364;-60
2023/03/26 03:27:40;;;;;;;;;;;7.30;99.90;;;;;;5079012;28;19924;-60
2023/03/26 03:30:07;;;;;;;;;;;7.30;99.90;;;;;;5081608;28;19931;-59
2023/03/26 03:32:33;;;;;;;;;;;7.30;99.90;;;;;;5083394;28;19925;-61
2023/03/26 03:35:00;;;;;;;;;;;7.30;99.90;;;;;;5083042;28;20461;-60
2023/03/26 03:37:26;;;;;;;;;;;7.30;99.90;;;;;;5084918;28;19924;-61
2023/03/26 03:39:53;;;;;;;;;;;7.40;99.90;;;;;;5086946;28;19924;-60
2023/03/26 03:42:21;;;;;;;;;;;7.40;99.90;;;;;;5086843;28;19924;-61
2023/03/26 03:44:48;;;;;;;;;;;7.40;99.90;;;;;;5084993;28;19978;-61
2023/03/26 03:47:15;;;;;;;;;;;7.40;99.90;;;;;;5085999;28;20339;-61
2023/03/26 03:49:41;;;;;;;;;;;7.50;99.90;;;;;;5087762;28;19925;-62
2023/03/26 03:52:08;;;;;;;;;;;7.50;99.90;;;;;;5085300;28;20383;-62
2023/03/26 03:54:35;;;;;;;;;;;7.50;99.90;;;;;;5084131;28;19928;-62
2023/03/26 03:57:02;;;;;;;;;;;7.60;99.90;;;;;;5084335;28;19971;-62
2023/03/26 03:59:30;;;;;;;;;;;7.70;99.90;;;;;;5085892;28;20374;-62
2023/03/26 04:01:56;;;;;;;;;;;7.70;99.90;;;;;;5086849;28;19924;-61
2023/03/26 04:04:23;;;;;;;;;;;7.60;99.90;;;;;;5085509;28;19928;-61
2023/03/26 04:06:50;;;;;;;;;;;7.60;99.90;;;;;;5088391;28;19924;-61
2023/03/26 04:09:16;;;;;;;;;;;7.60;99.90;;;;;;5084116;28;19947;-61
2023/03/26 04:11:43;;;;;;;;;;;7.60;99.90;;;;;;5085990;28;20424;-62
2023/03/26 04:14:10;;;;;;;;;;;7.70;99.90;;;;;;5084868;28;19928;-62
2023/03/26 04:16:38;;;;;;;;;;;7.80;99.90;;;;;;5092193;28;20369;-61
2023/03/26 04:19:04;;;;;;;;;;;7.80;99.90;;;;;;5087938;28;20443;-61
2023/03/26 04:21:31;;;;;;;;;;;7.80;99.90;;;;;;5084314;28;19970;-60
2023/03/26 04:24:00;;;;;;;;;;;7.70;99.90;;;;;;5087219;28;19931;-60
2023/03/26 04:26:29;;;;;;;;;;;7.50;99.90;;;;;;5083107;28;19967;-61
2023/03/26 04:28:58;;;;;;;;;;;7.50;99.90;;;;;;5085157;28;19924;-61
2023/03/26 04:31:27;;;;;;;;;;;7.50;99.90;;;;;;5084212;28;19986;-61
2023/03/26 04:33:58;;;;;;;;;;;7.50;99.90;;;;;;5084943;28;19985;-60
2023/03/26 04:36:27;;;;;;;;;;;7.40;99.90;;;;;;5086292;28;19924;-62
2023/03/26 04:38:53;;;;;;;;;;;7.40;99.90;;;;;;5085184;28;19931;-60
2023/03/26 04:41:21;;;;;;;;;;;7.40;99.90;;;;;;5083920;28;19924;-61
2023/03/26 04:43:49;;;;;;;;;;;7.30;99.90;;;;;;5085878;28;19924;-62
2023/03/26 04:46:17;;;;;;;;;;;7.30;99.90;;;;;;5084663;28;19924;-62
2023/03/26 04:48:43;;;;;;;;;;;7.30;99.90;;;;;;5080202;28;19936;-62
2023/03/26 04:51:16;;;;;;;;;;;7.30;99.90;;;;;;5084827;28;19928;-62
2023/03/26 04:53:43;;;;;;;;;;;7.30;99.90;;;;;;5076457;28;19972;-61
2023/03/26 04:56:13;;;;;;;;;;;7.30;99.90;;;;;;5084903;28;20012;-61
2023/03/26 04:58:40;;;;;;;;;;;7.40;99.90;;;;;;5083545;28;19977;-61
2023/03/26 05:01:06;;;;;;;;;;;7.40;99.90;;;;;;5084546;28;19969;-62
2023/03/26 05:03:33;;;;;;;;;;;7.40;99.90;;;;;;5086108;28;19928;-62
2023/03/26 05:06:00;;;;;;;;;;;7.40;99.90;;;;;;5083703;28;19970;-60
2023/03/26 05:08:29;;;;;;;;;;;7.40;99.90;;;;;;5083529;28;20448;-60
2023/03/26 05:10:55;;;;;;;;;;;7.40;99.90;;;;;;5079735;28;19925;-59
2023/03/26 05:13:22;;;;;;;;;;;7.40;99.90;;;;;;5084420;28;20139;-59
2023/03/26 05:15:49;;;;;;;;;;;7.40;99.90;;;;;;5085475;28;19928;-60
2023/03/26 05:18:15;;;;;;;;;;;7.40;99.90;;;;;;5083945;28;19999;-59
2023/03/26 05:20:42;;;;;;;;;;;7.50;99.90;;;;;;5083353;28;19970;-61
2023/03/26 05:23:09;;;;;;;;;;;7.50;99.90;;;;;;5085610;28;19973;-61
2023/03/26 05:25:37;;;;;;;;;;;7.40;99.90;;;;;;5083545;28;20386;-61
2023/03/26 05:28:04;;;;;;;;;;;7.60;99.90;;;;;;5086805;28;19977;-61
2023/03/26 05:30:30;;;;;;;;;;;7.40;99.90;;;;;;5083329;28;20390;-61
2023/03/26 05:32:57;;;;;;;;;;;7.40;99.90;;;;;;5083125;28;19978;-62
2023/03/26 05:35:23;;;;;;;;;;;7.40;99.90;;;;;;5078860;28;19976;-60
2023/03/26 05:37:50;;;;;;;;;;;7.50;99.90;;;;;;5086436;28;19931;-62
2023/03/26 05:40:16;;;;;;;;;;;7.50;99.90;;;;;;5082478;28;19924;-60
2023/03/26 05:42:44;;;;;;;;;;;7.40;99.90;;;;;;5084322;28;19924;-58
2023/03/26 05:45:13;;;;;;;;;;;7.40;99.90;;;;;;5084819;28;20011;-61
2023/03/26 05:47:39;;;;;;;;;;;7.40;99.90;;;;;;5079391;28;19924;-60
2023/03/26 05:50:07;;;;;;;;;;;7.50;99.90;;;;;;5083627;28;19925;-60
2023/03/26 05:52:33;;;;;;;;;;;7.50;99.90;;;;;;5085065;28;19924;-59
2023/03/26 05:55:00;;;;;;;;;;;7.50;99.90;;;;;;5082852;28;19924;-61
2023/03/26 05:57:28;;;;;;;;;;;7.40;99.90;;;;;;5082166;28;19949;-59
2023/03/26 05:59:56;;;;;;;;;;;7.50;99.90;;;;;;5079672;28;19924;-60
2023/03/26 06:02:23;;;;;;;;;;;7.50;99.90;;;;;;5082716;28;19998;-62
2023/03/26 06:04:50;;;;;;;;;;;7.50;99.90;;;;;;5084739;28;19924;-60
2023/03/26 06:07:17;;;;;;;;;;;7.50;99.90;;;;;;5083120;28;19930;-59
2023/03/26 06:09:44;;;;;;;;;;;7.60;99.90;;;;;;5082047;28;19924;-59
2023/03/26 06:12:11;;;;;;;;;;;7.80;99.90;;;;;;5083774;28;20390;-60
2023/03/26 06:14:37;;;;;;;;;;;7.90;99.90;;;;;;5084423;28;20324;-60
2023/03/26 06:17:05;;;;;;;;;;;7.90;99.90;;;;;;5081440;28;20386;-58
2023/03/26 06:19:32;;;;;;;;;;;7.90;99.90;;;;;;5082893;28;19928;-60
2023/03/26 06:21:59;;;;;;;;;;;7.70;99.90;;;;;;5084486;28;19932;-59
2023/03/26 06:24:25;;;;;;;;;;;7.80;99.90;;;;;;5082618;28;20729;-62
2023/03/26 06:26:52;;;;;;;;;;;7.70;99.90;;;;;;5084084;28;19951;-61
2023/03/26 06:29:19;;;;;;;;;;;7.70;99.90;;;;;;5082102;28;19924;-62
2023/03/26 06:31:45;;;;;;;;;;;7.60;99.90;;;;;;5082618;28;20331;-61
2023/03/26 06:34:13;;;;;;;;;;;7.60;99.90;;;;;;5083807;28;19977;-61
2023/03/26 06:36:39;;;;;;;;;;;7.50;99.90;;;;;;5082434;28;19987;-61
2023/03/26 06:39:06;;;;;;;;;;;7.50;99.90;;;;;;5082075;28;20370;-61
2023/03/26 06:41:33;;;;;;;;;;;7.50;99.90;;;;;;5077873;28;19936;-61
2023/03/26 06:43:59;;;;;;;;;;;7.60;99.90;;;;;;5082841;28;19931;-61
2023/03/26 06:46:26;;;;;;;;;;;7.50;99.90;;;;;;5082278;28;20396;-61
2023/03/26 06:48:53;;;;;;;;;;;7.50;99.90;;;;;;5082143;28;20390;-62
2023/03/26 06:51:20;;;;;;;;;;;7.60;99.90;;;;;;5081581;28;20018;-61
2023/03/26 06:53:47;;;;;;;;;;;7.70;99.90;;;;;;5078114;28;19924;-61
2023/03/26 06:56:13;;;;;;;;;;;7.60;99.90;;;;;;5081121;28;19935;-61
2023/03/26 06:58:40;;;;;;;;;;;7.80;99.90;;;;;;5081190;28;20452;-62
2023/03/26 07:01:07;;;;;;;;;;;7.60;99.90;;;;;;5083188;28;19969;-57
2023/03/26 07:03:33;;;;;;;;;;;7.70;99.90;;;;;;5083247;28;19924;-62
2023/03/26 07:06:00;;;;;;;;;;;7.70;99.90;;;;;;5081038;28;20383;-60
2023/03/26 07:08:29;;;;;;;;;;;7.60;99.90;;;;;;5082520;28;19978;-62
2023/03/26 07:10:56;;;;;;;;;;;7.70;99.90;;;;;;5083384;28;19924;-62
2023/03/26 07:13:22;;;;;;;;;;;7.60;99.90;;;;;;5082277;28;19998;-62
2023/03/26 07:15:49;;;;;;;;;;;7.70;99.90;;;;;;5081160;28;20379;-61
2023/03/26 07:18:15;;;;;;;;;;;7.70;99.90;;;;;;5077454;28;20279;-65
2023/03/26 07:20:44;;;;;;;;;;;7.70;99.90;;;;;;5082219;28;20004;-61
2023/03/26 07:23:10;;;;;;;;;;;8.00;99.90;;;;;;5082518;28;19924;-59
2023/03/26 07:25:39;;;;;;;;;;;8.10;99.90;;;;;;5082891;28;19981;-60
2023/03/26 07:28:10;;;;;;;;;;;8.30;99.90;;;;;;5083325;28;19970;-61
2023/03/26 07:30:41;;;;;;;;;;;8.40;99.90;;;;;;5082327;28;19924;-61
2023/03/26 07:33:10;;;;;;;;;;;8.40;99.90;;;;;;5080780;28;20569;-61
2023/03/26 07:35:41;;;;;;;;;;;8.40;99.90;;;;;;5082392;28;19970;-59
2023/03/26 07:38:22;;;;;;;;;;;8.50;99.90;;;;;;5083542;28;19928;-58
2023/03/26 07:40:54;;;;;;;;;;;8.50;99.90;;;;;;5085354;28;19945;-60
2023/03/26 07:43:28;;;;;;;;;;;8.50;99.90;;;;;;5084265;28;20015;-60
2023/03/26 07:45:56;;;;;;;;;;;8.50;99.90;;;;;;5077136;28;20382;-58
2023/03/26 07:48:25;;;;;;;;;;;8.30;99.90;;;;;;5084286;28;20011;-60
2023/03/26 07:50:53;;;;;;;;;;;8.40;99.90;;;;;;5090415;28;19928;-59
2023/03/26 07:53:20;;;;;;;;;;;8.40;99.90;;;;;;5081637;28;19929;-57
2023/03/26 07:55:49;;;;;;;;;;;8.30;99.90;;;;;;5080661;28;19924;-60
2023/03/26 07:58:25;;;;;;;;;;;8.40;99.90;;;;;;5081890;28;20362;-59
2023/03/26 08:00:54;;;;;;;;;;;8.50;99.90;;;;;;5077010;28;19950;-59
2023/03/26 08:03:31;;;;;;;;;;;8.50;99.90;;;;;;5081345;28;19951;-59
2023/03/26 08:06:02;;;;;;;;;;;8.60;99.90;;;;;;5078657;28;20366;-60
2023/03/26 08:08:35;;;;;;;;;;;8.50;99.90;;;;;;5080710;28;19925;-59
2023/03/26 08:11:07;;;;;;;;;;;8.60;99.90;;;;;;5081593;28;19947;-58
2023/03/26 08:13:37;;;;;;;;;;;8.60;99.90;;;;;;5077174;28;19986;-57
2023/03/26 08:16:07;;;;;;;;;;;8.70;99.90;;;;;;5080467;28;19993;-58
2023/03/26 08:18:40;;;;;;;;;;;8.70;99.90;;;;;;5077470;28;19974;-58
2023/03/26 08:21:09;;;;;;;;;;;8.60;99.90;;;;;;5085110;28;19928;-58
2023/03/26 08:23:39;;;;;;;;;;;8.60;99.90;;;;;;5086327;28;19924;-59
2023/03/26 08:26:09;;;;;;;;;;;8.50;99.90;;;;;;5086342;28;20019;-58
2023/03/26 08:28:42;;;;;;;;;;;8.60;99.90;;;;;;5084881;28;19935;-59
2023/03/26 08:31:09;;;;;;;;;;;8.60;99.90;;;;;;5083932;28;19925;-60
2023/03/26 08:33:36;;;;;;;;;;;8.60;99.90;;;;;;5085508;28;19932;-59
2023/03/26 08:36:02;;;;;;;;;;;8.60;99.90;;;;;;5085776;28;20443;-60
2023/03/26 08:38:29;;;;;;;;;;;8.70;99.90;;;;;;5080605;28;19932;-58
2023/03/26 08:41:15;;;;;;;;;;;8.70;99.90;;;;;;5084616;28;19929;-59
2023/03/26 08:44:03;;;;;;;;;;;8.70;99.90;;;;;;5084517;28;20147;-62
2023/03/26 08:46:51;;;;;;;;;;;8.60;99.90;;;;;;5085118;28;20011;-60
2023/03/26 08:49:32;;;;;;;;;;;8.80;99.90;;;;;;5086270;28;19928;-61
2023/03/26 08:52:16;;;;;;;;;;;8.80;99.90;;;;;;5086174;28;19924;-59
2023/03/26 08:54:47;;;;;;;;;;;8.80;99.90;;;;;;5084973;28;20398;-61
2023/03/26 08:57:24;;;;;;;;;;;8.90;99.90;;;;;;5083973;28;19971;-60
2023/03/26 09:00:11;;;;;;;;;;;8.90;99.90;;;;;;5081374;28;19932;-62
2023/03/26 09:02:55;;;;;;;;;;;9.00;99.90;;;;;;5053103;28;20304;-61
2023/03/26 09:05:40;;;;;;;;;;;9.00;99.90;;;;;;5081907;28;19989;-59
2023/03/26 09:08:19;;;;;;;;;;;9.00;99.90;;;;;;5082834;28;19936;-60
2023/03/26 09:11:03;;;;;;;;;;;9.00;99.90;;;;;;5081582;28;19928;-62
2023/03/26 09:13:44;;;;;;;;;;;9.00;99.90;;;;;;5082349;28;20329;-61
2023/03/26 09:16:26;;;;;;;;;;;9.10;99.90;;;;;;5080703;28;20336;-59
2023/03/26 09:19:11;;;;;;;;;;;9.10;99.90;;;;;;5050341;28;20352;-58
2023/03/26 09:21:58;;;;;;;;;;;9.20;99.90;;;;;;5081122;28;19924;-60
2023/03/26 09:24:35;;;;;;;;;;;9.10;99.90;;;;;;5082587;28;20440;-61
2023/03/26 09:27:09;;;;;;;;;;;9.00;99.90;;;;;;5080346;28;19928;-62
2023/03/26 09:29:57;;;;;;;;;;;8.90;99.90;;;;;;5082787;28;20276;-61
2023/03/26 09:32:38;;;;;;;;;;;8.90;99.90;;;;;;5078421;28;20374;-60
2023/03/26 09:35:32;;;;;;;;;;;8.50;99.90;;;;;;5080085;28;20460;-60
2023/03/26 09:37:59;;;;;;;;;;;8.70;99.90;;;;;;5081084;28;20004;-60
2023/03/26 09:40:35;;;;;;;;;;;8.80;99.90;;;;;;5082682;28;19963;-60
2023/03/26 09:43:10;;;;;;;;;;;8.60;99.90;;;;;;5083483;28;19924;-61
2023/03/26 09:45:50;;;;;;;;;;;8.80;99.90;;;;;;5080277;28;19931;-60
2023/03/26 09:48:25;;;;;;;;;;;8.70;99.90;;;;;;5079502;28;20398;-60
2023/03/26 09:50:55;;;;;;;;;;;8.70;99.90;;;;;;5082884;28;19924;-61
2023/03/26 09:53:30;;;;;;;;;;;8.80;99.90;;;;;;5084091;28;19925;-62
2023/03/26 09:56:03;;;;;;;;;;;8.80;99.90;;;;;;5081803;28;20333;-60
2023/03/26 09:58:45;;;;;;;;;;;8.80;99.90;;;;;;5082661;28;19968;-61
2023/03/26 10:01:18;;;;;;;;;;;8.70;99.90;;;;;;5082614;28;19930;-60
2023/03/26 10:03:49;;;;;;;;;;;9.00;99.90;;;;;;5080021;28;19924;-59
2023/03/26 10:06:22;;;;;;;;;;;9.10;99.90;;;;;;5082306;28;20024;-61
2023/03/26 10:08:52;;;;;;;;;;;8.90;99.90;;;;;;5083122;28;19924;-61
2023/03/26 10:11:23;;;;;;;;;;;8.90;99.90;;;;;;5084279;28;19924;-60
2023/03/26 10:13:58;;;;;;;;;;;8.70;99.90;;;;;;5083707;28;19970;-60
2023/03/26 10:16:31;;;;;;;;;;;8.60;99.90;;;;;;5079034;28;19924;-62
2023/03/26 10:19:08;;;;;;;;;;;8.50;99.90;;;;;;5069515;28;19930;-61
2023/03/26 10:21:40;;;;;;;;;;;8.70;99.90;;;;;;5081852;28;20023;-61
2023/03/26 10:24:23;;;;;;;;;;;8.80;99.90;;;;;;5078408;28;19928;-62
2023/03/26 10:27:01;;;;;;;;;;;8.70;99.90;;;;;;5080496;28;20379;-62
2023/03/26 10:29:56;;;;;;;;;;;8.90;99.90;;;;;;5077425;28;19997;-62
2023/03/26 10:32:29;;;;;;;;;;;8.90;99.90;;;;;;5043902;28;19936;-62
2023/03/26 10:35:07;;;;;;;;;;;9.00;99.90;;;;;;5074711;28;19932;-62
2023/03/26 10:37:40;;;;;;;;;;;8.80;99.90;;;;;;5080585;28;19929;-62
2023/03/26 10:40:16;;;;;;;;;;;8.60;99.90;;;;;;5082816;28;19932;-61
2023/03/26 10:42:56;;;;;;;;;;;8.60;99.90;;;;;;5079298;28;19931;-61
2023/03/26 10:45:31;;;;;;;;;;;8.90;99.90;;;;;;5077077;28;19931;-61
2023/03/26 10:48:12;;;;;;;;;;;8.80;99.90;;;;;;5080482;28;19925;-59
2023/03/26 10:50:49;;;;;;;;;;;8.60;99.90;;;;;;5081384;28;19970;-58
2023/03/26 10:53:23;;;;;;;;;;;8.50;99.90;;;;;;5084500;28;19924;-60
2023/03/26 10:55:53;;;;;;;;;;;8.60;99.90;;;;;;5080076;28;19970;-60
2023/03/26 10:58:23;;;;;;;;;;;8.40;99.90;;;;;;5081177;28;19925;-62
2023/03/26 11:00:54;;;;;;;;;;;8.40;99.90;;;;;;5078628;28;19930;-62
2023/03/26 11:03:30;;;;;;;;;;;8.30;99.90;;;;;;5081499;28;19998;-57
2023/03/26 11:06:01;;;;;;;;;;;8.40;99.90;;;;;;5080655;28;21358;-63
2023/03/26 11:08:31;;;;;;;;;;;8.30;99.90;;;;;;5076020;28;19969;-63
2023/03/26 11:11:01;;;;;;;;;;;8.90;99.90;;;;;;5082561;28;19924;-62
2023/03/26 11:13:35;;;;;;;;;;;8.20;99.90;;;;;;5078138;28;19970;-62
2023/03/26 11:16:03;;;;;;;;;;;8.30;99.90;;;;;;5080191;28;19978;-59
2023/03/26 11:18:34;;;;;;;;;;;8.40;99.90;;;;;;5083334;28;19924;-63
2023/03/26 11:21:03;;;;;;;;;;;8.10;99.90;;;;;;5084623;28;19924;-64
2023/03/26 11:23:34;;;;;;;;;;;8.10;99.90;;;;;;5081991;28;19925;-62
2023/03/26 11:26:05;;;;;;;;;;;8.30;99.90;;;;;;5086771;28;19967;-63
2023/03/26 11:28:40;;;;;;;;;;;8.30;99.90;;;;;;5082180;28;19999;-62
2023/03/26 11:31:11;;;;;;;;;;;8.40;99.90;;;;;;5095571;28;19924;-63
2023/03/26 11:33:41;;;;;;;;;;;8.20;99.90;;;;;;5093463;28;19924;-61
2023/03/26 11:36:09;;;;;;;;;;;8.10;99.90;;;;;;5078406;28;20379;-61
2023/03/26 11:38:37;;;;;;;;;;;7.90;99.90;;;;;;5072619;28;19925;-63
2023/03/26 11:41:05;;;;;;;;;;;7.90;99.90;;;;;;5079803;28;20417;-62
2023/03/26 11:43:34;;;;;;;;;;;8.00;99.90;;;;;;5081479;28;20082;-61
2023/03/26 11:46:04;;;;;;;;;;;8.00;99.90;;;;;;5082474;28;20294;-63
2023/03/26 11:48:31;;;;;;;;;;;8.70;99.90;;;;;;5078547;28;19924;-62
2023/03/26 11:51:01;;;;;;;;;;;8.00;99.90;;;;;;5074130;28;19978;-62
2023/03/26 11:53:29;;;;;;;;;;;8.20;99.90;;;;;;5076537;28;19931;-60
2023/03/26 11:55:58;;;;;;;;;;;8.20;99.90;;;;;;5080872;28;19928;-63
2023/03/26 11:58:29;;;;;;;;;;;8.30;99.90;;;;;;5085630;28;19924;-63
2023/03/26 12:00:57;;;;;;;;;;;8.30;99.90;;;;;;5086632;28;19928;-63
2023/03/26 12:03:29;;;;;;;;;;;8.30;99.90;;;;;;5084088;28;19958;-63
2023/03/26 12:05:57;;;;;;;;;;;8.00;99.90;;;;;;5082968;28;20386;-63
2023/03/26 12:08:28;;;;;;;;;;;7.80;99.90;;;;;;5081227;28;19924;-62
2023/03/26 12:11:04;;;;;;;;;;;7.90;99.90;;;;;;5082784;28;19980;-61
2023/03/26 12:13:34;;;;;;;;;;;7.90;99.90;;;;;;5084589;28;19970;-61
2023/03/26 12:16:04;;;;;;;;;;;8.00;99.90;;;;;;5079886;28;19931;-61
2023/03/26 12:18:32;;;;;;;;;;;7.90;99.90;;;;;;5083810;28;19974;-61
2023/03/26 12:21:04;;;;;;;;;;;8.20;99.90;;;;;;5083836;28;19931;-63
2023/03/26 12:23:36;;;;;;;;;;;8.20;99.90;;;;;;5084031;28;20019;-63
2023/03/26 12:26:11;;;;;;;;;;;8.20;99.90;;;;;;5081509;28;19925;-62
2023/03/26 12:28:43;;;;;;;;;;;8.20;99.90;;;;;;5083208;28;20395;-62
2023/03/26 12:31:16;;;;;;;;;;;7.90;99.90;;;;;;5084421;28;19983;-61
2023/03/26 12:33:45;;;;;;;;;;;8.00;99.90;;;;;;5081157;28;19928;-63
2023/03/26 12:36:17;;;;;;;;;;;8.10;99.90;;;;;;5083379;28;20341;-63
2023/03/26 12:38:44;;;;;;;;;;;8.30;99.90;;;;;;5078838;28;19975;-63
2023/03/26 12:41:12;;;;;;;;;;;8.10;99.90;;;;;;5089421;28;20382;-63
2023/03/26 12:43:40;;;;;;;;;;;8.10;99.90;;;;;;5079813;28;19929;-63
2023/03/26 12:46:20;;;;;;;;;;;8.30;99.90;;;;;;5083438;28;19977;-62
2023/03/26 12:48:47;;;;;;;;;;;8.20;99.90;;;;;;5081835;28;19928;-63
2023/03/26 12:51:19;;;;;;;;;;;8.00;99.90;;;;;;5090357;28;19989;-62
2023/03/26 12:53:53;;;;;;;;;;;8.00;99.90;;;;;;5084764;28;20336;-63
2023/03/26 12:56:21;;;;;;;;;;;8.00;99.90;;;;;;5078584;28;19924;-62
2023/03/26 12:59:02;;;;;;;;;;;8.20;99.90;;;;;;5085582;28;19968;-64
2023/03/26 13:01:38;;;;;;;;;;;8.50;99.90;;;;;;5081181;28;20362;-64
2023/03/26 13:04:18;;;;;;;;;;;8.70;99.90;;;;;;5080648;28;19925;-61
2023/03/26 13:06:49;;;;;;;;;;;8.80;99.90;;;;;;5084875;28;19985;-61
2023/03/26 13:09:36;;;;;;;;;;;8.40;99.90;;;;;;5081115;28;19977;-63
2023/03/26 13:12:07;;;;;;;;;;;8.40;99.90;;;;;;5075251;28;19934;-62
2023/03/26 13:14:55;;;;;;;;;;;8.40;99.90;;;;;;5084242;28;20069;-63
2023/03/26 13:17:25;;;;;;;;;;;8.30;99.90;;;;;;5078458;28;19924;-63
2023/03/26 13:19:59;;;;;;;;;;;8.50;99.90;;;;;;5078832;28;20569;-63
2023/03/26 13:22:30;;;;;;;;;;;8.50;99.90;;;;;;5082911;28;19924;-63
2023/03/26 13:25:00;;;;;;;;;;;8.60;99.90;;;;;;5080744;28;20448;-63
2023/03/26 13:27:35;;;;;;;;;;;8.80;99.90;;;;;;5082148;28;20309;-64
2023/03/26 13:30:05;;;;;;;;;;;8.90;99.90;;;;;;5086288;28;19973;-63
2023/03/26 13:32:38;;;;;;;;;;;9.00;99.90;;;;;;5082576;28;20333;-64
2023/03/26 13:35:23;;;;;;;;;;;8.70;99.90;;;;;;5076177;28;19928;-63
2023/03/26 13:37:52;;;;;;;;;;;8.60;99.90;;;;;;5081105;28;19974;-64
2023/03/26 13:40:24;;;;;;;;;;;8.60;99.90;;;;;;5079955;28;19969;-63
2023/03/26 13:42:55;;;;;;;;;;;8.60;99.90;;;;;;5084978;28;19923;-64
2023/03/26 13:45:28;;;;;;;;;;;8.60;99.90;;;;;;5083196;28;20383;-65
2023/03/26 13:47:56;;;;;;;;;;;8.60;99.90;;;;;;5081626;28;20387;-65
2023/03/26 13:50:26;;;;;;;;;;;8.40;99.90;;;;;;5083183;28;20423;-64
2023/03/26 13:52:55;;;;;;;;;;;8.30;99.90;;;;;;5084558;28;19974;-64
2023/03/26 13:55:24;;;;;;;;;;;8.50;99.90;;;;;;5083325;28;19931;-64
2023/03/26 13:57:54;;;;;;;;;;;8.70;99.90;;;;;;5081154;28;19970;-64
2023/03/26 14:00:25;;;;;;;;;;;8.70;99.90;;;;;;5082943;28;20314;-65
2023/03/26 14:02:55;;;;;;;;;;;8.70;99.90;;;;;;5084565;28;20352;-65
2023/03/26 14:05:23;;;;;;;;;;;8.50;99.90;;;;;;5083332;28;19987;-65
2023/03/26 14:07:53;;;;;;;;;;;8.50;99.90;;;;;;5081776;28;19931;-65
2023/03/26 14:10:23;;;;;;;;;;;8.60;99.90;;;;;;5082693;28;19985;-63
2023/03/26 14:12:53;;;;;;;;;;;8.80;99.90;;;;;;5081014;28;19923;-64
2023/03/26 14:15:22;;;;;;;;;;;8.70;99.90;;;;;;5081648;28;19932;-63
2023/03/26 14:17:53;;;;;;;;;;;8.70;99.90;;;;;;5081244;28;20019;-64
2023/03/26 14:20:38;;;;;;;;;;;8.80;99.90;;;;;;5081802;28;19932;-63
2023/03/26 14:23:20;;;;;;;;;;;8.90;99.90;;;;;;5079929;28;19928;-64
2023/03/26 14:25:55;;;;;;;;;;;9.00;99.90;;;;;;5078413;28;19947;-63
2023/03/26 14:28:31;;;;;;;;;;;9.10;99.90;;;;;;5078944;28;19947;-64
2023/03/26 14:31:09;;;;;;;;;;;8.80;92.00;;;;;;5081263;28;19924;-63
2023/03/26 14:33:52;;;;;;;;;;;8.70;99.90;;;;;;5081710;28;19928;-63
2023/03/26 14:36:27;;;;;;;;;;;8.40;99.90;;;;;;5081234;28;19928;-61
2023/03/26 14:39:03;;;;;;;;;;;8.50;99.90;;;;;;5082059;28;19970;-63
2023/03/26 14:41:39;;;;;;;;;;;8.60;99.90;;;;;;5079251;28;19955;-66
2023/03/26 14:44:33;;;;;;;;;;;8.70;99.90;;;;;;5081608;28;19925;-65
2023/03/26 14:47:10;;;;;;;;;;;8.70;99.90;;;;;;5079865;28;19931;-65
2023/03/26 14:49:52;;;;;;;;;;;8.70;99.90;;;;;;5077410;28;20525;-65
2023/03/26 14:52:21;;;;;;;;;;;8.50;99.90;;;;;;5075223;28;20529;-67